sensor_id;sensor_type;location;lat;lon;timestamp;temperature;humidity
19692;DHT22;42748;50.016;19.890;2022-11-20T00:01:28;-2.70;99.90
19692;DHT22;42748;50.016;19.890;2022-11-20T00:03:57;-2.80;99.90
19692;DHT22;42748;50.016;19.890;2022-11-20T00:06:25;-2.90;99.90
19692;DHT22;42748;50.016;19.890;2022-11-20T00:08:55;-3.00;99.90
19692;DHT22;42748;50.016;19.890;2022-11-20T00:11:25;-2.90;99.90
19692;DHT22;42748;50.016;19.890;2022-11-20T00:13:55;-2.90;99.90
19692;DHT22;42748;50.016;19.890;2022-11-20T00:16:25;-3.00;99.90
19692;DHT22;42748;50.016;19.890;2022-11-20T00:18:53;-3.00;99.90
19692;DHT22;42748;50.016;19.890;2022-11-20T00:21:25;-3.10;99.90
19692;DHT22;42748;50.016;19.890;2022-11-20T00:23:54;-3.10;99.90
19692;DHT22;42748;50.016;19.890;2022-11-20T00:26:23;-3.10;99.90
19692;DHT22;42748;50.016;19.890;2022-11-20T00:28:52;-3.10;99.90
19692;DHT22;42748;50.016;19.890;2022-11-20T00:31:20;-3.20;99.90
19692;DHT22;42748;50.016;19.890;2022-11-20T00:33:47;-3.20;99.90
19692;DHT22;42748;50.016;19.890;2022-11-20T00:36:22;-3.30;99.90
19692;DHT22;42748;50.016;19.890;2022-11-20T00:38:55;-3.30;99.90
19692;DHT22;42748;50.016;19.890;2022-11-20T00:41:23;-3.20;99.90
19692;DHT22;42748;50.016;19.890;2022-11-20T00:43:52;-3.30;99.90
19692;DHT22;42748;50.016;19.890;2022-11-20T00:46:21;-3.30;99.90
19692;DHT22;42748;50.016;19.890;2022-11-20T00:48:49;-3.30;99.90
19692;DHT22;42748;50.016;19.890;2022-11-20T00:51:18;-3.30;99.90
19692;DHT22;42748;50.016;19.890;2022-11-20T00:53:46;-3.40;99.90
19692;DHT22;42748;50.016;19.890;2022-11-20T00:56:16;-3.40;99.90
19692;DHT22;42748;50.016;19.890;2022-11-20T00:58:45;-3.40;99.90
19692;DHT22;42748;50.016;19.890;2022-11-20T01:01:15;-3.40;99.90
19692;DHT22;42748;50.016;19.890;2022-11-20T01:03:45;-3.40;99.90
19692;DHT22;42748;50.016;19.890;2022-11-20T01:06:26;-3.40;99.90
19692;DHT22;42748;50.016;19.890;2022-11-20T01:08:59;-3.40;99.90
19692;DHT22;42748;50.016;19.890;2022-11-20T01:11:31;-3.40;99.90
19692;DHT22;42748;50.016;19.890;2022-11-20T01:14:00;-3.30;99.90
19692;DHT22;42748;50.016;19.890;2022-11-20T01:16:33;-3.40;99.90
19692;DHT22;42748;50.016;19.890;2022-11-20T01:19:03;-3.30;99.90
19692;DHT22;42748;50.016;19.890;2022-11-20T01:21:34;-3.40;99.90
19692;DHT22;42748;50.016;19.890;2022-11-20T01:24:02;-3.50;99.90
19692;DHT22;42748;50.016;19.890;2022-11-20T01:26:34;-3.50;99.90
19692;DHT22;42748;50.016;19.890;2022-11-20T01:29:03;-3.50;99.90
19692;DHT22;42748;50.016;19.890;2022-11-20T01:31:32;-3.50;99.90
19692;DHT22;42748;50.016;19.890;2022-11-20T01:34:09;-3.40;99.90
19692;DHT22;42748;50.016;19.890;2022-11-20T01:36:37;-3.40;99.90
19692;DHT22;42748;50.016;19.890;2022-11-20T01:39:11;-3.40;99.90
19692;DHT22;42748;50.016;19.890;2022-11-20T01:41:39;-3.40;99.90
19692;DHT22;42748;50.016;19.890;2022-11-20T01:44:45;-3.40;99.90
19692;DHT22;42748;50.016;19.890;2022-11-20T01:47:17;-3.40;99.90
19692;DHT22;42748;50.016;19.890;2022-11-20T01:49:52;-3.50;99.90
19692;DHT22;42748;50.016;19.890;2022-11-20T01:52:34;-3.50;99.90
19692;DHT22;42748;50.016;19.890;2022-11-20T01:55:16;-3.50;99.90
19692;DHT22;42748;50.016;19.890;2022-11-20T01:57:45;-3.50;99.90
19692;DHT22;42748;50.016;19.890;2022-11-20T02:00:18;-3.50;99.90
19692;DHT22;42748;50.016;19.890;2022-11-20T02:02:50;-3.50;99.90
19692;DHT22;42748;50.016;19.890;2022-11-20T02:06:10;-3.50;99.90
19692;DHT22;42748;50.016;19.890;2022-11-20T02:08:10;-3.50;99.90
19692;DHT22;42748;50.016;19.890;2022-11-20T02:10:37;-3.50;99.90
19692;DHT22;42748;50.016;19.890;2022-11-20T02:13:04;-3.50;99.90
19692;DHT22;42748;50.016;19.890;2022-11-20T02:15:50;-3.60;99.90
19692;DHT22;42748;50.016;19.890;2022-11-20T02:18:19;-3.60;99.90
19692;DHT22;42748;50.016;19.890;2022-11-20T02:20:51;-3.60;99.90
19692;DHT22;42748;50.016;19.890;2022-11-20T02:26:23;-3.70;99.90
19692;DHT22;42748;50.016;19.890;2022-11-20T02:28:50;-3.70;99.90
19692;DHT22;42748;50.016;19.890;2022-11-20T02:31:17;-3.70;99.90
19692;DHT22;42748;50.016;19.890;2022-11-20T02:33:44;-3.70;99.90
19692;DHT22;42748;50.016;19.890;2022-11-20T02:36:14;-3.70;99.90
19692;DHT22;42748;50.016;19.890;2022-11-20T02:38:41;-3.70;99.90
19692;DHT22;42748;50.016;19.890;2022-11-20T02:41:09;-3.80;99.90
19692;DHT22;42748;50.016;19.890;2022-11-20T02:43:36;-3.80;99.90
19692;DHT22;42748;50.016;19.890;2022-11-20T02:46:06;-3.80;99.90
19692;DHT22;42748;50.016;19.890;2022-11-20T02:48:33;-3.70;99.90
19692;DHT22;42748;50.016;19.890;2022-11-20T02:51:01;-3.80;99.90
19692;DHT22;42748;50.016;19.890;2022-11-20T02:53:28;-3.90;99.90
19692;DHT22;42748;50.016;19.890;2022-11-20T02:55:55;-3.90;99.90
19692;DHT22;42748;50.016;19.890;2022-11-20T02:58:22;-3.90;99.90
19692;DHT22;42748;50.016;19.890;2022-11-20T03:00:49;-3.90;99.90
19692;DHT22;42748;50.016;19.890;2022-11-20T03:03:17;-3.90;99.90
19692;DHT22;42748;50.016;19.890;2022-11-20T03:05:43;-4.00;99.90
19692;DHT22;42748;50.016;19.890;2022-11-20T03:08:10;-4.00;99.90
19692;DHT22;42748;50.016;19.890;2022-11-20T03:10:37;-4.00;99.90
19692;DHT22;42748;50.016;19.890;2022-11-20T03:13:04;-4.00;99.90
19692;DHT22;42748;50.016;19.890;2022-11-20T03:15:31;-3.90;99.90
19692;DHT22;42748;50.016;19.890;2022-11-20T03:17:58;-4.00;99.90
19692;DHT22;42748;50.016;19.890;2022-11-20T03:20:26;-4.00;99.90
19692;DHT22;42748;50.016;19.890;2022-11-20T03:22:54;-4.00;99.90
19692;DHT22;42748;50.016;19.890;2022-11-20T03:25:21;-4.00;99.90
19692;DHT22;42748;50.016;19.890;2022-11-20T03:27:48;-4.00;99.90
19692;DHT22;42748;50.016;19.890;2022-11-20T03:30:15;-4.00;99.90
19692;DHT22;42748;50.016;19.890;2022-11-20T03:32:42;-4.10;99.90
19692;DHT22;42748;50.016;19.890;2022-11-20T03:35:09;-4.10;99.90
19692;DHT22;42748;50.016;19.890;2022-11-20T03:37:36;-4.10;99.90
19692;DHT22;42748;50.016;19.890;2022-11-20T03:40:04;-4.10;99.90
19692;DHT22;42748;50.016;19.890;2022-11-20T03:42:31;-4.10;99.90
19692;DHT22;42748;50.016;19.890;2022-11-20T03:45:15;-4.20;99.90
19692;DHT22;42748;50.016;19.890;2022-11-20T03:47:44;-4.20;99.90
19692;DHT22;42748;50.016;19.890;2022-11-20T03:50:12;-4.20;99.90
19692;DHT22;42748;50.016;19.890;2022-11-20T03:52:40;-4.20;99.90
19692;DHT22;42748;50.016;19.890;2022-11-20T03:55:09;-4.10;99.90
19692;DHT22;42748;50.016;19.890;2022-11-20T03:57:37;-4.10;99.90
19692;DHT22;42748;50.016;19.890;2022-11-20T04:00:05;-4.10;99.90
19692;DHT22;42748;50.016;19.890;2022-11-20T04:02:32;-4.10;99.90
19692;DHT22;42748;50.016;19.890;2022-11-20T04:04:59;-4.10;99.90
19692;DHT22;42748;50.016;19.890;2022-11-20T04:07:26;-4.10;99.90
19692;DHT22;42748;50.016;19.890;2022-11-20T04:09:53;-4.10;99.90
19692;DHT22;42748;50.016;19.890;2022-11-20T04:12:20;-4.20;99.90
19692;DHT22;42748;50.016;19.890;2022-11-20T04:14:48;-4.20;99.90
19692;DHT22;42748;50.016;19.890;2022-11-20T04:17:15;-4.20;99.90
19692;DHT22;42748;50.016;19.890;2022-11-20T04:19:42;-4.20;99.90
19692;DHT22;42748;50.016;19.890;2022-11-20T04:22:09;-4.20;99.90
19692;DHT22;42748;50.016;19.890;2022-11-20T04:24:38;-4.20;99.90
19692;DHT22;42748;50.016;19.890;2022-11-20T04:27:05;-4.20;99.90
19692;DHT22;42748;50.016;19.890;2022-11-20T04:29:32;-4.20;99.90
19692;DHT22;42748;50.016;19.890;2022-11-20T04:31:59;-4.30;99.90
19692;DHT22;42748;50.016;19.890;2022-11-20T04:34:26;-4.30;99.90
19692;DHT22;42748;50.016;19.890;2022-11-20T04:36:53;-4.30;99.90
19692;DHT22;42748;50.016;19.890;2022-11-20T04:39:20;-4.30;99.90
19692;DHT22;42748;50.016;19.890;2022-11-20T04:41:47;-4.30;99.90
19692;DHT22;42748;50.016;19.890;2022-11-20T04:44:14;-4.30;99.90
19692;DHT22;42748;50.016;19.890;2022-11-20T04:46:42;-4.30;99.90
19692;DHT22;42748;50.016;19.890;2022-11-20T04:49:10;-4.30;99.90
19692;DHT22;42748;50.016;19.890;2022-11-20T04:51:38;-4.30;99.90
19692;DHT22;42748;50.016;19.890;2022-11-20T04:54:05;-4.30;99.90
19692;DHT22;42748;50.016;19.890;2022-11-20T04:56:31;-4.30;99.90
19692;DHT22;42748;50.016;19.890;2022-11-20T04:59:02;-4.30;99.90
19692;DHT22;42748;50.016;19.890;2022-11-20T05:01:29;-4.40;99.90
19692;DHT22;42748;50.016;19.890;2022-11-20T05:03:56;-4.50;99.90
19692;DHT22;42748;50.016;19.890;2022-11-20T05:06:24;-4.50;99.90
19692;DHT22;42748;50.016;19.890;2022-11-20T05:08:51;-4.50;99.90
19692;DHT22;42748;50.016;19.890;2022-11-20T05:11:20;-4.50;99.90
19692;DHT22;42748;50.016;19.890;2022-11-20T05:13:48;-4.50;99.90
19692;DHT22;42748;50.016;19.890;2022-11-20T05:16:18;-4.40;99.90
19692;DHT22;42748;50.016;19.890;2022-11-20T05:18:46;-4.50;99.90
19692;DHT22;42748;50.016;19.890;2022-11-20T05:21:14;-4.40;99.90
19692;DHT22;42748;50.016;19.890;2022-11-20T05:23:41;-4.50;99.90
19692;DHT22;42748;50.016;19.890;2022-11-20T05:26:19;-4.50;99.90
19692;DHT22;42748;50.016;19.890;2022-11-20T05:28:48;-4.50;99.90
19692;DHT22;42748;50.016;19.890;2022-11-20T05:31:23;-4.60;99.90
19692;DHT22;42748;50.016;19.890;2022-11-20T05:33:55;-4.60;99.90
19692;DHT22;42748;50.016;19.890;2022-11-20T05:36:22;-4.70;99.90
19692;DHT22;42748;50.016;19.890;2022-11-20T05:38:49;-4.70;99.90
19692;DHT22;42748;50.016;19.890;2022-11-20T05:41:20;-4.70;99.90
19692;DHT22;42748;50.016;19.890;2022-11-20T05:43:48;-4.70;99.90
19692;DHT22;42748;50.016;19.890;2022-11-20T05:46:18;-4.80;99.90
19692;DHT22;42748;50.016;19.890;2022-11-20T05:48:53;-4.80;99.90
19692;DHT22;42748;50.016;19.890;2022-11-20T05:51:21;-4.80;99.90
19692;DHT22;42748;50.016;19.890;2022-11-20T05:53:48;-4.90;99.90
19692;DHT22;42748;50.016;19.890;2022-11-20T05:56:19;-4.90;99.90
19692;DHT22;42748;50.016;19.890;2022-11-20T05:58:47;-5.00;99.90
19692;DHT22;42748;50.016;19.890;2022-11-20T06:01:23;-5.00;99.90
19692;DHT22;42748;50.016;19.890;2022-11-20T06:03:50;-5.00;99.90
19692;DHT22;42748;50.016;19.890;2022-11-20T06:06:19;-5.10;99.90
19692;DHT22;42748;50.016;19.890;2022-11-20T06:08:46;-5.20;99.90
19692;DHT22;42748;50.016;19.890;2022-11-20T06:11:14;-5.20;99.90
19692;DHT22;42748;50.016;19.890;2022-11-20T06:13:42;-5.30;99.90
19692;DHT22;42748;50.016;19.890;2022-11-20T06:16:11;-5.30;99.90
19692;DHT22;42748;50.016;19.890;2022-11-20T06:18:38;-5.20;99.90
19692;DHT22;42748;50.016;19.890;2022-11-20T06:23:34;-5.10;99.90
19692;DHT22;42748;50.016;19.890;2022-11-20T06:26:22;-5.10;99.90
19692;DHT22;42748;50.016;19.890;2022-11-20T06:28:50;-5.00;99.90
19692;DHT22;42748;50.016;19.890;2022-11-20T06:31:19;-5.00;99.90
19692;DHT22;42748;50.016;19.890;2022-11-20T06:33:47;-4.90;99.90
19692;DHT22;42748;50.016;19.890;2022-11-20T06:36:17;-5.00;99.90
19692;DHT22;42748;50.016;19.890;2022-11-20T06:38:45;-5.00;99.90
19692;DHT22;42748;50.016;19.890;2022-11-20T06:41:15;-5.00;99.90
19692;DHT22;42748;50.016;19.890;2022-11-20T06:43:42;-4.90;99.90
19692;DHT22;42748;50.016;19.890;2022-11-20T06:46:11;-4.90;99.90
19692;DHT22;42748;50.016;19.890;2022-11-20T06:48:38;-4.90;99.90
19692;DHT22;42748;50.016;19.890;2022-11-20T06:51:07;-4.80;99.90
19692;DHT22;42748;50.016;19.890;2022-11-20T06:53:35;-4.80;99.90
19692;DHT22;42748;50.016;19.890;2022-11-20T06:56:02;-4.70;99.90
19692;DHT22;42748;50.016;19.890;2022-11-20T06:58:31;-4.70;99.90
19692;DHT22;42748;50.016;19.890;2022-11-20T07:01:03;-4.60;99.90
19692;DHT22;42748;50.016;19.890;2022-11-20T07:03:31;-4.60;99.90
19692;DHT22;42748;50.016;19.890;2022-11-20T07:05:58;-4.60;99.90
19692;DHT22;42748;50.016;19.890;2022-11-20T07:08:26;-4.60;99.90
19692;DHT22;42748;50.016;19.890;2022-11-20T07:10:57;-4.60;99.90
19692;DHT22;42748;50.016;19.890;2022-11-20T07:13:27;-4.60;99.90
19692;DHT22;42748;50.016;19.890;2022-11-20T07:15:54;-4.60;99.90
19692;DHT22;42748;50.016;19.890;2022-11-20T07:18:21;-4.50;99.90
19692;DHT22;42748;50.016;19.890;2022-11-20T07:20:48;-4.40;99.90
19692;DHT22;42748;50.016;19.890;2022-11-20T07:23:15;-4.30;99.90
19692;DHT22;42748;50.016;19.890;2022-11-20T07:25:42;-4.20;99.90
19692;DHT22;42748;50.016;19.890;2022-11-20T07:28:10;-4.10;99.90
19692;DHT22;42748;50.016;19.890;2022-11-20T07:30:37;-4.00;99.90
19692;DHT22;42748;50.016;19.890;2022-11-20T07:33:04;-3.90;99.90
19692;DHT22;42748;50.016;19.890;2022-11-20T07:35:31;-3.60;99.90
19692;DHT22;42748;50.016;19.890;2022-11-20T07:37:59;-3.40;99.90
19692;DHT22;42748;50.016;19.890;2022-11-20T07:40:26;-3.40;99.90
19692;DHT22;42748;50.016;19.890;2022-11-20T07:42:54;-3.20;99.90
19692;DHT22;42748;50.016;19.890;2022-11-20T07:45:23;-2.80;99.90
19692;DHT22;42748;50.016;19.890;2022-11-20T07:47:51;-2.70;99.90
19692;DHT22;42748;50.016;19.890;2022-11-20T07:50:19;-3.00;99.90
19692;DHT22;42748;50.016;19.890;2022-11-20T07:52:46;-3.10;99.90
19692;DHT22;42748;50.016;19.890;2022-11-20T07:55:14;-2.90;99.90
19692;DHT22;42748;50.016;19.890;2022-11-20T07:57:41;-2.80;99.90
19692;DHT22;42748;50.016;19.890;2022-11-20T08:00:10;-2.80;99.90
19692;DHT22;42748;50.016;19.890;2022-11-20T08:02:40;-3.10;99.90
19692;DHT22;42748;50.016;19.890;2022-11-20T08:05:10;-3.20;99.90
19692;DHT22;42748;50.016;19.890;2022-11-20T08:07:39;-3.30;99.90
19692;DHT22;42748;50.016;19.890;2022-11-20T08:10:07;-3.50;99.90
19692;DHT22;42748;50.016;19.890;2022-11-20T08:12:35;-3.70;99.90
19692;DHT22;42748;50.016;19.890;2022-11-20T08:15:21;-3.70;99.90
19692;DHT22;42748;50.016;19.890;2022-11-20T08:17:48;-3.60;99.90
19692;DHT22;42748;50.016;19.890;2022-11-20T08:20:35;-3.60;99.90
19692;DHT22;42748;50.016;19.890;2022-11-20T08:23:04;-3.70;99.90
19692;DHT22;42748;50.016;19.890;2022-11-20T08:25:34;-3.60;99.90
19692;DHT22;42748;50.016;19.890;2022-11-20T08:28:05;-3.60;99.90
19692;DHT22;42748;50.016;19.890;2022-11-20T08:30:46;-3.60;99.90
19692;DHT22;42748;50.016;19.890;2022-11-20T08:33:13;-3.60;99.90
19692;DHT22;42748;50.016;19.890;2022-11-20T08:35:40;-3.60;99.90
19692;DHT22;42748;50.016;19.890;2022-11-20T08:38:08;-3.50;99.90
19692;DHT22;42748;50.016;19.890;2022-11-20T08:40:35;-3.60;99.90
19692;DHT22;42748;50.016;19.890;2022-11-20T08:43:02;-3.60;99.90
19692;DHT22;42748;50.016;19.890;2022-11-20T08:45:29;-3.50;99.90
19692;DHT22;42748;50.016;19.890;2022-11-20T08:48:01;-3.40;99.90
19692;DHT22;42748;50.016;19.890;2022-11-20T08:50:30;-3.40;99.90
19692;DHT22;42748;50.016;19.890;2022-11-20T08:53:05;-3.30;99.90
19692;DHT22;42748;50.016;19.890;2022-11-20T08:55:32;-3.30;99.90
19692;DHT22;42748;50.016;19.890;2022-11-20T08:58:05;-3.20;99.90
19692;DHT22;42748;50.016;19.890;2022-11-20T09:00:33;-3.10;99.90
19692;DHT22;42748;50.016;19.890;2022-11-20T09:03:01;-3.00;99.90
19692;DHT22;42748;50.016;19.890;2022-11-20T09:05:28;-2.90;99.90
19692;DHT22;42748;50.016;19.890;2022-11-20T09:07:58;-2.90;99.90
19692;DHT22;42748;50.016;19.890;2022-11-20T09:10:26;-2.80;99.90
19692;DHT22;42748;50.016;19.890;2022-11-20T09:12:54;-2.70;99.90
19692;DHT22;42748;50.016;19.890;2022-11-20T09:15:23;-2.70;99.90
19692;DHT22;42748;50.016;19.890;2022-11-20T09:17:54;-2.60;99.90
19692;DHT22;42748;50.016;19.890;2022-11-20T09:20:22;-2.50;99.90
19692;DHT22;42748;50.016;19.890;2022-11-20T09:22:49;-2.50;99.90
19692;DHT22;42748;50.016;19.890;2022-11-20T09:25:17;-2.40;99.90
19692;DHT22;42748;50.016;19.890;2022-11-20T09:27:44;-2.40;99.90
19692;DHT22;42748;50.016;19.890;2022-11-20T09:30:14;-2.40;99.90
19692;DHT22;42748;50.016;19.890;2022-11-20T09:32:44;-2.30;99.90
19692;DHT22;42748;50.016;19.890;2022-11-20T09:35:11;-2.30;99.90
19692;DHT22;42748;50.016;19.890;2022-11-20T09:37:38;-2.20;99.90
19692;DHT22;42748;50.016;19.890;2022-11-20T09:40:06;-2.20;99.90
19692;DHT22;42748;50.016;19.890;2022-11-20T09:42:41;-2.10;99.90
19692;DHT22;42748;50.016;19.890;2022-11-20T09:56:03;-2.10;99.90
19692;DHT22;42748;50.016;19.890;2022-11-20T09:58:43;-2.10;99.90
19692;DHT22;42748;50.016;19.890;2022-11-20T10:01:18;-2.00;99.90
19692;DHT22;42748;50.016;19.890;2022-11-20T10:04:08;-2.00;99.90
19692;DHT22;42748;50.016;19.890;2022-11-20T10:09:54;-1.90;99.90
19692;DHT22;42748;50.016;19.890;2022-11-20T10:18:16;-1.70;99.90
19692;DHT22;42748;50.016;19.890;2022-11-20T10:20:50;-1.60;99.90
19692;DHT22;42748;50.016;19.890;2022-11-20T10:23:30;-1.50;99.90
19692;DHT22;42748;50.016;19.890;2022-11-20T10:31:34;-1.80;99.90
19692;DHT22;42748;50.016;19.890;2022-11-20T10:34:11;-1.80;99.90
19692;DHT22;42748;50.016;19.890;2022-11-20T10:37:12;-1.70;99.90
19692;DHT22;42748;50.016;19.890;2022-11-20T10:39:50;-1.60;99.90
19692;DHT22;42748;50.016;19.890;2022-11-20T10:42:34;-1.40;99.90
19692;DHT22;42748;50.016;19.890;2022-11-20T10:45:17;-1.30;99.90
19692;DHT22;42748;50.016;19.890;2022-11-20T10:47:46;-1.20;99.90
19692;DHT22;42748;50.016;19.890;2022-11-20T10:50:19;-1.20;99.90
19692;DHT22;42748;50.016;19.890;2022-11-20T10:55:55;-1.20;99.90
19692;DHT22;42748;50.016;19.890;2022-11-20T10:58:39;-1.10;99.90
19692;DHT22;42748;50.016;19.890;2022-11-20T11:01:19;-1.10;99.90
19692;DHT22;42748;50.016;19.890;2022-11-20T11:03:49;-1.10;99.90
19692;DHT22;42748;50.016;19.890;2022-11-20T11:06:37;-1.00;99.90
19692;DHT22;42748;50.016;19.890;2022-11-20T11:09:17;-0.80;99.90
19692;DHT22;42748;50.016;19.890;2022-11-20T11:11:46;-0.90;99.90
19692;DHT22;42748;50.016;19.890;2022-11-20T11:14:15;-0.80;99.90
19692;DHT22;42748;50.016;19.890;2022-11-20T11:16:55;-0.70;99.90
19692;DHT22;42748;50.016;19.890;2022-11-20T11:19:23;-0.50;99.90
19692;DHT22;42748;50.016;19.890;2022-11-20T11:21:56;-0.40;99.90
19692;DHT22;42748;50.016;19.890;2022-11-20T11:24:28;-0.40;99.90
19692;DHT22;42748;50.016;19.890;2022-11-20T11:27:14;-0.40;99.90
19692;DHT22;42748;50.016;19.890;2022-11-20T11:29:44;-0.30;99.90
19692;DHT22;42748;50.016;19.890;2022-11-20T11:32:14;-0.30;99.90
19692;DHT22;42748;50.016;19.890;2022-11-20T11:34:41;-0.30;99.90
19692;DHT22;42748;50.016;19.890;2022-11-20T11:37:18;-0.40;99.90
19692;DHT22;42748;50.016;19.890;2022-11-20T11:39:46;-0.50;99.90
19692;DHT22;42748;50.016;19.890;2022-11-20T11:42:30;-0.40;99.90
19692;DHT22;42748;50.016;19.890;2022-11-20T11:44:59;-0.40;99.90
19692;DHT22;42748;50.016;19.890;2022-11-20T11:47:36;-0.40;99.90
19692;DHT22;42748;50.016;19.890;2022-11-20T11:52:55;-0.30;99.90
19692;DHT22;42748;50.016;19.890;2022-11-20T11:58:11;-0.20;99.90
19692;DHT22;42748;50.016;19.890;2022-11-20T12:00:57;-0.20;99.90
19692;DHT22;42748;50.016;19.890;2022-11-20T12:03:34;-0.10;99.90
19692;DHT22;42748;50.016;19.890;2022-11-20T12:06:10;0.00;99.90
19692;DHT22;42748;50.016;19.890;2022-11-20T12:11:34;0.00;99.90
19692;DHT22;42748;50.016;19.890;2022-11-20T12:14:18;0.10;99.90
19692;DHT22;42748;50.016;19.890;2022-11-20T12:16:51;0.10;99.90
19692;DHT22;42748;50.016;19.890;2022-11-20T12:19:19;0.10;99.90
19692;DHT22;42748;50.016;19.890;2022-11-20T12:27:57;0.30;99.90
19692;DHT22;42748;50.016;19.890;2022-11-20T12:30:27;0.20;99.90
19692;DHT22;42748;50.016;19.890;2022-11-20T12:33:16;0.00;99.90
19692;DHT22;42748;50.016;19.890;2022-11-20T12:36:07;-0.10;99.90
19692;DHT22;42748;50.016;19.890;2022-11-20T12:41:40;0.10;99.90
19692;DHT22;42748;50.016;19.890;2022-11-20T13:07:01;0.40;99.90
19692;DHT22;42748;50.016;19.890;2022-11-20T13:09:29;0.40;99.90
19692;DHT22;42748;50.016;19.890;2022-11-20T13:15:27;0.30;99.90
19692;DHT22;42748;50.016;19.890;2022-11-20T13:18:01;0.40;99.90
19692;DHT22;42748;50.016;19.890;2022-11-20T13:20:30;0.40;99.90
19692;DHT22;42748;50.016;19.890;2022-11-20T13:22:58;0.40;99.90
19692;DHT22;42748;50.016;19.890;2022-11-20T13:25:32;0.40;99.90
19692;DHT22;42748;50.016;19.890;2022-11-20T13:30:36;0.60;99.90
19692;DHT22;42748;50.016;19.890;2022-11-20T13:33:09;0.60;99.90
19692;DHT22;42748;50.016;19.890;2022-11-20T13:36:04;0.70;99.90
19692;DHT22;42748;50.016;19.890;2022-11-20T13:38:47;0.70;99.90
19692;DHT22;42748;50.016;19.890;2022-11-20T13:41:25;0.60;99.90
19692;DHT22;42748;50.016;19.890;2022-11-20T13:44:46;0.50;99.90
19692;DHT22;42748;50.016;19.890;2022-11-20T13:46:47;0.50;99.90
19692;DHT22;42748;50.016;19.890;2022-11-20T13:49:34;0.40;99.90
19692;DHT22;42748;50.016;19.890;2022-11-20T14:00:51;0.10;99.90
19692;DHT22;42748;50.016;19.890;2022-11-20T14:03:22;0.10;99.90
19692;DHT22;42748;50.016;19.890;2022-11-20T14:06:31;0.00;99.90
19692;DHT22;42748;50.016;19.890;2022-11-20T14:08:59;0.10;99.90
19692;DHT22;42748;50.016;19.890;2022-11-20T14:11:30;0.10;99.90
19692;DHT22;42748;50.016;19.890;2022-11-20T14:14:10;0.10;99.90
19692;DHT22;42748;50.016;19.890;2022-11-20T14:16:39;0.10;99.90
19692;DHT22;42748;50.016;19.890;2022-11-20T14:19:26;0.20;99.90
19692;DHT22;42748;50.016;19.890;2022-11-20T14:22:23;0.20;99.90
19692;DHT22;42748;50.016;19.890;2022-11-20T14:27:47;0.20;99.90
19692;DHT22;42748;50.016;19.890;2022-11-20T14:30:17;0.10;99.90
19692;DHT22;42748;50.016;19.890;2022-11-20T14:32:46;0.10;99.90
19692;DHT22;42748;50.016;19.890;2022-11-20T14:35:28;0.00;99.90
19692;DHT22;42748;50.016;19.890;2022-11-20T14:37:56;0.00;99.90
19692;DHT22;42748;50.016;19.890;2022-11-20T14:40:32;-0.10;99.90
19692;DHT22;42748;50.016;19.890;2022-11-20T14:43:04;-0.10;99.90
19692;DHT22;42748;50.016;19.890;2022-11-20T14:45:43;-0.10;99.90
19692;DHT22;42748;50.016;19.890;2022-11-20T14:48:10;-0.20;99.90
19692;DHT22;42748;50.016;19.890;2022-11-20T14:50:38;-0.20;99.90
19692;DHT22;42748;50.016;19.890;2022-11-20T14:53:06;-0.30;99.90
19692;DHT22;42748;50.016;19.890;2022-11-20T14:55:36;-0.30;99.90
19692;DHT22;42748;50.016;19.890;2022-11-20T14:58:27;-0.30;99.90
19692;DHT22;42748;50.016;19.890;2022-11-20T15:01:05;-0.40;99.90
19692;DHT22;42748;50.016;19.890;2022-11-20T15:03:37;-0.40;99.90
19692;DHT22;42748;50.016;19.890;2022-11-20T15:06:06;-0.50;99.90
19692;DHT22;42748;50.016;19.890;2022-11-20T15:08:34;-0.50;99.90
19692;DHT22;42748;50.016;19.890;2022-11-20T15:11:02;-0.60;99.90
19692;DHT22;42748;50.016;19.890;2022-11-20T15:15:57;-0.60;99.90
19692;DHT22;42748;50.016;19.890;2022-11-20T16:10:19;-0.80;99.90
19692;DHT22;42748;50.016;19.890;2022-11-20T16:12:47;-0.70;99.90
19692;DHT22;42748;50.016;19.890;2022-11-20T16:15:32;-0.70;99.90
19692;DHT22;42748;50.016;19.890;2022-11-20T16:18:17;-0.70;99.90
19692;DHT22;42748;50.016;19.890;2022-11-20T16:20:46;-0.70;99.90
19692;DHT22;42748;50.016;19.890;2022-11-20T16:23:13;-0.60;99.90
19692;DHT22;42748;50.016;19.890;2022-11-20T16:25:43;-0.60;99.90
19692;DHT22;42748;50.016;19.890;2022-11-20T16:28:11;-0.60;99.90
19692;DHT22;42748;50.016;19.890;2022-11-20T16:30:44;-0.60;99.90
19692;DHT22;42748;50.016;19.890;2022-11-20T16:33:14;-0.50;99.90
19692;DHT22;42748;50.016;19.890;2022-11-20T16:35:41;-0.50;99.90
19692;DHT22;42748;50.016;19.890;2022-11-20T16:38:08;-0.50;99.90
19692;DHT22;42748;50.016;19.890;2022-11-20T16:40:36;-0.50;99.90
19692;DHT22;42748;50.016;19.890;2022-11-20T16:43:11;-0.50;99.90
19692;DHT22;42748;50.016;19.890;2022-11-20T16:45:43;-0.40;99.90
19692;DHT22;42748;50.016;19.890;2022-11-20T16:48:15;-0.40;99.90
19692;DHT22;42748;50.016;19.890;2022-11-20T16:50:50;-0.40;99.90
19692;DHT22;42748;50.016;19.890;2022-11-20T16:53:21;-0.40;99.90
19692;DHT22;42748;50.016;19.890;2022-11-20T16:55:49;-0.40;99.90
19692;DHT22;42748;50.016;19.890;2022-11-20T16:58:16;-0.40;99.90
19692;DHT22;42748;50.016;19.890;2022-11-20T17:00:43;-0.40;99.90
19692;DHT22;42748;50.016;19.890;2022-11-20T17:03:17;-0.30;99.90
19692;DHT22;42748;50.016;19.890;2022-11-20T17:05:45;-0.40;99.90
19692;DHT22;42748;50.016;19.890;2022-11-20T17:08:12;-0.30;99.90
19692;DHT22;42748;50.016;19.890;2022-11-20T17:10:39;-0.30;99.90
19692;DHT22;42748;50.016;19.890;2022-11-20T17:13:08;-0.30;99.90
19692;DHT22;42748;50.016;19.890;2022-11-20T17:15:35;-0.30;99.90
19692;DHT22;42748;50.016;19.890;2022-11-20T17:18:02;-0.30;99.90
19692;DHT22;42748;50.016;19.890;2022-11-20T17:20:29;-0.30;99.90
19692;DHT22;42748;50.016;19.890;2022-11-20T17:22:58;-0.30;99.90
19692;DHT22;42748;50.016;19.890;2022-11-20T17:25:25;-0.30;99.90
19692;DHT22;42748;50.016;19.890;2022-11-20T17:27:53;-0.30;99.90
19692;DHT22;42748;50.016;19.890;2022-11-20T17:30:20;-0.40;99.90
19692;DHT22;42748;50.016;19.890;2022-11-20T17:32:47;-0.40;99.90
19692;DHT22;42748;50.016;19.890;2022-11-20T17:35:14;-0.40;99.90
19692;DHT22;42748;50.016;19.890;2022-11-20T17:37:41;-0.30;99.90
19692;DHT22;42748;50.016;19.890;2022-11-20T17:40:08;-0.30;99.90
19692;DHT22;42748;50.016;19.890;2022-11-20T17:42:35;-0.30;99.90
19692;DHT22;42748;50.016;19.890;2022-11-20T17:45:03;-0.50;99.90
19692;DHT22;42748;50.016;19.890;2022-11-20T17:47:30;-0.60;99.90
19692;DHT22;42748;50.016;19.890;2022-11-20T17:49:57;-0.60;99.90
19692;DHT22;42748;50.016;19.890;2022-11-20T17:52:24;-0.60;99.90
19692;DHT22;42748;50.016;19.890;2022-11-20T17:54:51;-0.60;99.90
19692;DHT22;42748;50.016;19.890;2022-11-20T17:57:22;-0.60;99.90
19692;DHT22;42748;50.016;19.890;2022-11-20T18:00:08;-0.60;99.90
19692;DHT22;42748;50.016;19.890;2022-11-20T18:02:38;-0.70;99.90
19692;DHT22;42748;50.016;19.890;2022-11-20T18:05:06;-0.60;99.90
19692;DHT22;42748;50.016;19.890;2022-11-20T18:07:33;-0.60;99.90